createdAt,value
2023-04-25T00:02:11.690Z,3.20
2023-04-25T00:04:39.232Z,3.50
2023-04-25T00:07:06.407Z,3.25
2023-04-25T00:09:33.859Z,3.67
2023-04-25T00:12:02.439Z,3.42
2023-04-25T00:14:29.857Z,3.33
2023-04-25T00:16:57.066Z,3.33
2023-04-25T00:19:30.443Z,3.08
2023-04-25T00:21:57.191Z,4.45
2023-04-25T00:24:23.879Z,3.17
2023-04-25T00:26:50.677Z,4.03
2023-04-25T00:29:17.471Z,3.70
2023-04-25T00:31:44.224Z,3.60
2023-04-25T00:34:10.857Z,3.25
2023-04-25T00:36:37.578Z,3.13
2023-04-25T00:39:05.580Z,3.47
2023-04-25T00:41:32.309Z,3.58
2023-04-25T00:44:00.257Z,3.05
2023-04-25T00:46:26.978Z,3.65
2023-04-25T00:48:53.634Z,3.35
2023-04-25T00:51:22.241Z,2.63
2023-04-25T00:53:51.061Z,3.13
2023-04-25T00:56:18.605Z,2.70
2023-04-25T00:58:45.630Z,2.72
2023-04-25T01:01:44.716Z,2.00
2023-04-25T01:04:12.118Z,2.00
2023-04-25T01:06:39.394Z,1.95
2023-04-25T01:09:06.435Z,2.30
2023-04-25T01:11:33.375Z,2.25
2023-04-25T01:14:00.231Z,2.63
2023-04-25T01:16:27.751Z,2.45
2023-04-25T01:19:00.627Z,2.30
2023-04-25T01:21:29.248Z,2.38
2023-04-25T01:23:55.918Z,2.88
2023-04-25T01:26:23.384Z,2.22
2023-04-25T01:28:50.795Z,2.35
2023-04-25T01:31:18.730Z,2.40
2023-04-25T01:33:47.297Z,4.68
2023-04-25T01:36:15.514Z,2.35
2023-04-25T01:38:43.037Z,2.78
2023-04-25T01:41:09.857Z,3.25
2023-04-25T01:43:36.650Z,2.80
2023-04-25T01:46:12.277Z,2.60
2023-04-25T01:48:39.066Z,2.75
2023-04-25T01:51:05.769Z,2.67
2023-04-25T01:53:32.784Z,3.30
2023-04-25T01:55:59.606Z,3.00
2023-04-25T01:58:26.259Z,3.45
2023-04-25T02:00:53.208Z,3.75
2023-04-25T02:03:20.056Z,3.55
2023-04-25T02:05:46.799Z,3.63
2023-04-25T02:08:20.876Z,3.97
2023-04-25T02:10:47.772Z,3.60
2023-04-25T02:13:14.538Z,3.75
2023-04-25T02:15:42.144Z,3.80
2023-04-25T02:18:08.981Z,5.30
2023-04-25T02:20:50.644Z,4.45
2023-04-25T02:23:17.489Z,6.72
2023-04-25T02:25:44.343Z,11.90
2023-04-25T02:28:11.494Z,7.90
2023-04-25T02:30:38.565Z,5.38
2023-04-25T02:33:05.663Z,4.88
2023-04-25T02:35:32.661Z,5.47
2023-04-25T02:37:59.329Z,5.10
2023-04-25T02:40:26.171Z,5.93
2023-04-25T02:42:52.997Z,6.28
2023-04-25T02:45:19.664Z,5.88
2023-04-25T02:47:46.413Z,5.93
2023-04-25T02:50:13.125Z,6.22
2023-04-25T02:52:39.811Z,6.38
2023-04-25T02:55:06.996Z,6.68
2023-04-25T02:57:33.733Z,6.82
2023-04-25T03:00:00.434Z,6.40
2023-04-25T03:02:27.287Z,6.18
2023-04-25T03:04:54.837Z,7.03
2023-04-25T03:07:21.468Z,8.25
2023-04-25T03:09:48.061Z,6.00
2023-04-25T03:12:14.689Z,6.00
2023-04-25T03:14:41.348Z,6.05
2023-04-25T03:17:17.100Z,6.40
2023-04-25T03:19:43.814Z,5.88
2023-04-25T03:22:10.515Z,6.28
2023-04-25T03:24:38.215Z,5.53
2023-04-25T03:27:05.020Z,5.57
2023-04-25T03:29:31.704Z,5.80
2023-04-25T03:31:58.478Z,6.50
2023-04-25T03:34:42.197Z,5.57
2023-04-25T03:37:08.927Z,5.93
2023-04-25T03:39:35.628Z,5.97
2023-04-25T03:42:03.950Z,6.13
2023-04-25T03:44:30.762Z,6.05
2023-04-25T03:46:57.637Z,6.18
2023-04-25T03:49:24.370Z,5.32
2023-04-25T03:51:51.096Z,5.10
2023-04-25T03:54:17.852Z,5.47
2023-04-25T03:57:00.518Z,4.93
2023-04-25T03:59:27.189Z,5.22
2023-04-25T04:01:53.917Z,5.45
2023-04-25T04:04:20.789Z,5.05
2023-04-25T04:06:48.049Z,5.00
2023-04-25T04:09:14.755Z,4.63
2023-04-25T04:11:41.505Z,5.63
2023-04-25T04:14:09.061Z,5.05
2023-04-25T04:16:36.084Z,5.10
2023-04-25T04:19:04.469Z,4.85
2023-04-25T04:21:31.279Z,4.85
2023-04-25T04:23:58.742Z,5.15
2023-04-25T04:26:27.125Z,4.35
2023-04-25T04:28:55.376Z,5.03
2023-04-25T04:31:23.009Z,4.65
2023-04-25T04:33:50.069Z,3.97
2023-04-25T04:36:16.948Z,3.20
2023-04-25T04:38:43.700Z,4.32
2023-04-25T04:41:10.782Z,3.75
2023-04-25T04:43:37.822Z,3.95
2023-04-25T04:46:05.320Z,3.60
2023-04-25T04:48:35.668Z,3.67
2023-04-25T04:51:02.391Z,3.30
2023-04-25T04:53:29.229Z,3.65
2023-04-25T04:55:55.876Z,3.80
2023-04-25T04:58:22.865Z,3.30
2023-04-25T05:00:49.782Z,3.33
2023-04-25T05:03:17.334Z,3.45
2023-04-25T05:05:44.287Z,3.47
2023-04-25T05:08:11.120Z,3.08
2023-04-25T05:10:38.001Z,15.90
2023-04-25T05:13:04.879Z,18.08
2023-04-25T05:15:31.740Z,10.27
2023-04-25T05:17:58.578Z,7.60
2023-04-25T05:20:25.438Z,5.82
2023-04-25T05:22:52.084Z,4.75
2023-04-25T05:25:18.886Z,4.30
2023-04-25T05:27:48.708Z,4.00
2023-04-25T05:30:15.392Z,4.22
2023-04-25T05:32:42.349Z,3.40
2023-04-25T05:35:09.973Z,3.85
2023-04-25T05:37:36.700Z,3.75
2023-04-25T05:40:15.377Z,3.88
2023-04-25T05:42:42.091Z,3.60
2023-04-25T05:45:09.094Z,4.47
2023-04-25T05:47:35.892Z,4.32
2023-04-25T05:50:03.005Z,3.80
2023-04-25T05:52:29.697Z,3.40
2023-04-25T05:54:56.401Z,3.00
2023-04-25T05:57:27.646Z,3.55
2023-04-25T05:59:54.911Z,3.38
2023-04-25T06:02:22.692Z,3.75
2023-04-25T06:04:51.868Z,3.60
2023-04-25T06:07:25.432Z,3.60
2023-04-25T06:09:52.188Z,3.10
2023-04-25T06:12:18.833Z,3.60
2023-04-25T06:14:45.486Z,7.00
2023-04-25T06:17:12.205Z,8.80
2023-04-25T06:19:38.882Z,5.32
2023-04-25T06:22:05.640Z,3.50
2023-04-25T06:24:32.324Z,3.55
2023-04-25T06:26:58.958Z,3.97
2023-04-25T06:29:28.336Z,3.92
2023-04-25T06:31:55.177Z,3.50
2023-04-25T06:34:21.916Z,3.55
2023-04-25T06:36:48.574Z,3.92
2023-04-25T06:39:15.443Z,3.15
2023-04-25T06:41:42.157Z,4.10
2023-04-25T06:44:08.843Z,3.30
2023-04-25T06:46:35.757Z,4.53
2023-04-25T06:49:02.452Z,3.78
2023-04-25T06:51:30.699Z,4.10
2023-04-25T06:53:57.474Z,4.75
2023-04-25T06:56:24.468Z,3.83
2023-04-25T06:58:51.532Z,3.22
2023-04-25T07:01:21.683Z,3.97
2023-04-25T07:03:48.671Z,3.55
2023-04-25T07:06:15.639Z,3.25
2023-04-25T07:08:42.329Z,3.50
2023-04-25T07:11:08.965Z,3.30
2023-04-25T07:13:35.860Z,3.42
2023-04-25T07:16:02.628Z,3.13
2023-04-25T07:18:35.440Z,4.03
2023-04-25T07:21:02.148Z,4.43
2023-04-25T07:23:28.908Z,4.32
2023-04-25T07:25:55.776Z,4.85
2023-04-25T07:28:22.516Z,4.25
2023-04-25T07:30:49.176Z,3.90
2023-04-25T07:33:15.957Z,3.55
2023-04-25T07:35:42.731Z,3.08
2023-04-25T07:38:11.262Z,3.88
2023-04-25T07:40:37.932Z,5.10
2023-04-25T07:43:04.689Z,3.83
2023-04-25T07:45:31.476Z,4.00
2023-04-25T07:47:58.252Z,3.42
2023-04-25T07:50:25.348Z,4.40
2023-04-25T07:52:52.004Z,3.90
2023-04-25T07:55:18.820Z,4.10
2023-04-25T07:57:45.664Z,3.88
2023-04-25T08:00:13.747Z,4.20
2023-04-25T08:02:40.666Z,4.15
2023-04-25T08:05:09.354Z,4.22
2023-04-25T08:07:36.203Z,3.42
2023-04-25T08:10:03.765Z,3.78
2023-04-25T08:12:30.565Z,3.70
2023-04-25T08:14:57.351Z,3.83
2023-04-25T08:17:24.570Z,3.50
2023-04-25T08:19:51.464Z,3.80
2023-04-25T08:22:29.895Z,4.55
2023-04-25T08:24:56.733Z,3.65
2023-04-25T08:27:23.464Z,2.95
2023-04-25T08:29:50.975Z,3.15
2023-04-25T08:32:18.074Z,3.00
2023-04-25T08:34:45.035Z,2.65
2023-04-25T08:37:11.767Z,2.80
2023-04-25T08:39:38.851Z,2.90
2023-04-25T08:42:11.171Z,2.92
2023-04-25T08:47:11.801Z,2.13
2023-04-25T08:49:53.036Z,1.63
2023-04-25T08:52:23.618Z,1.77
2023-04-25T08:54:57.833Z,2.15
2023-04-25T08:57:25.089Z,1.85
2023-04-25T08:59:56.200Z,2.00
2023-04-25T09:02:24.902Z,2.35
2023-04-25T09:04:51.926Z,1.83
2023-04-25T09:07:22.074Z,2.10
2023-04-25T09:09:48.870Z,1.63
2023-04-25T09:12:15.805Z,1.83
2023-04-25T09:14:43.895Z,1.80
2023-04-25T09:17:10.635Z,2.10
2023-04-25T09:19:41.977Z,2.10
2023-04-25T09:22:09.473Z,2.70
2023-04-25T09:24:38.877Z,1.50
2023-04-25T09:27:13.872Z,1.00
2023-04-25T09:29:41.956Z,1.70
2023-04-25T09:32:19.707Z,3.88
2023-04-25T09:34:51.629Z,3.33
2023-04-25T09:37:23.267Z,1.27
2023-04-25T09:39:58.040Z,1.83
2023-04-25T09:42:29.769Z,1.33
2023-04-25T09:44:57.658Z,1.42
2023-04-25T09:47:26.416Z,1.20
2023-04-25T09:49:54.427Z,1.30
2023-04-25T09:52:25.357Z,1.15
2023-04-25T09:54:53.357Z,1.30
2023-04-25T09:57:22.362Z,1.17
2023-04-25T09:59:54.157Z,1.00
2023-04-25T10:02:28.469Z,1.25
2023-04-25T10:04:56.917Z,1.05
2023-04-25T10:07:27.302Z,0.80
2023-04-25T10:10:04.937Z,0.70
2023-04-25T10:12:33.835Z,0.68
2023-04-25T10:15:01.532Z,0.50
2023-04-25T10:17:29.266Z,0.60
2023-04-25T10:19:57.466Z,0.55
2023-04-25T10:22:43.556Z,0.40
2023-04-25T10:25:10.908Z,0.80
2023-04-25T10:27:38.284Z,0.50
2023-04-25T10:30:16.889Z,2.88
2023-04-25T10:32:44.730Z,2.70
2023-04-25T10:35:12.926Z,2.42
2023-04-25T10:37:40.831Z,2.42
2023-04-25T10:40:11.794Z,2.67
2023-04-25T10:42:38.630Z,3.08
2023-04-25T10:45:08.946Z,4.55
2023-04-25T10:47:37.158Z,4.28
2023-04-25T10:50:10.488Z,4.82
2023-04-25T10:52:40.110Z,5.30
2023-04-25T10:55:07.346Z,6.28
2023-04-25T10:57:47.106Z,6.80
2023-04-25T11:00:16.475Z,7.72
2023-04-25T11:02:49.343Z,7.35
2023-04-25T11:05:33.158Z,7.13
2023-04-25T11:08:07.751Z,7.18
2023-04-25T11:10:38.555Z,4.25
2023-04-25T11:13:06.028Z,4.45
2023-04-25T11:15:32.803Z,4.72
2023-04-25T11:17:59.566Z,3.85
2023-04-25T11:20:29.916Z,4.78
2023-04-25T11:23:00.993Z,5.03
2023-04-25T11:25:27.931Z,4.25
2023-04-25T11:27:58.763Z,3.55
2023-04-25T11:30:27.545Z,3.88
2023-04-25T11:32:54.521Z,3.28
2023-04-25T11:35:23.897Z,3.03
2023-04-25T11:37:51.264Z,3.00
2023-04-25T11:40:18.232Z,2.00
2023-04-25T11:42:46.991Z,3.47
2023-04-25T11:45:15.046Z,2.97
2023-04-25T11:47:42.033Z,3.78
2023-04-25T11:50:09.691Z,4.53
2023-04-25T11:52:44.629Z,3.05
2023-04-25T11:55:18.144Z,1.60
2023-04-25T11:57:47.777Z,1.65
2023-04-25T12:00:24.148Z,2.30
2023-04-25T12:02:56.862Z,6.40
2023-04-25T12:05:33.482Z,5.57
2023-04-25T12:08:19.281Z,1.30
2023-04-25T12:10:47.213Z,2.17
2023-04-25T12:13:25.923Z,1.88
2023-04-25T12:15:55.258Z,1.80
2023-04-25T12:18:25.006Z,3.08
2023-04-25T12:20:55.046Z,4.03
2023-04-25T12:23:29.114Z,2.33
2023-04-25T12:25:56.846Z,3.75
2023-04-25T12:28:25.180Z,2.50
2023-04-25T12:31:05.948Z,3.95
2023-04-25T12:33:35.309Z,3.83
2023-04-25T12:36:13.243Z,4.20
2023-04-25T12:38:41.955Z,5.82
2023-04-25T12:41:18.098Z,4.97
2023-04-25T12:43:44.778Z,6.00
2023-04-25T12:46:11.484Z,4.57
2023-04-25T12:48:39.292Z,5.50
2023-04-25T12:51:05.966Z,5.68
2023-04-25T12:53:35.519Z,5.85
2023-04-25T12:56:02.595Z,5.80
2023-04-25T12:58:29.303Z,5.95
2023-04-25T13:00:56.038Z,6.20
2023-04-25T13:03:26.615Z,5.78
2023-04-25T13:05:53.739Z,5.05
2023-04-25T13:08:20.730Z,5.05
2023-04-25T13:10:48.803Z,5.13
2023-04-25T13:13:15.542Z,4.28
2023-04-25T13:15:42.275Z,3.75
2023-04-25T13:18:09.124Z,3.63
2023-04-25T13:20:36.090Z,4.10
2023-04-25T13:23:03.129Z,3.30
2023-04-25T13:25:30.070Z,3.60
2023-04-25T13:27:56.868Z,4.25
2023-04-25T13:30:23.687Z,3.47
2023-04-25T13:32:50.543Z,3.25
2023-04-25T13:35:18.220Z,3.63
2023-04-25T13:37:44.964Z,4.07
2023-04-25T13:40:12.326Z,3.47
2023-04-25T13:42:40.327Z,4.38
2023-04-25T13:45:08.279Z,4.65
2023-04-25T13:47:35.892Z,4.00
2023-04-25T13:50:04.219Z,3.63
2023-04-25T13:52:31.034Z,3.97
2023-04-25T13:54:57.732Z,3.00
2023-04-25T13:57:24.520Z,2.40
2023-04-25T13:59:54.789Z,2.65
2023-04-25T14:02:21.442Z,2.58
2023-04-25T14:04:48.266Z,2.50
2023-04-25T14:07:18.899Z,2.20
2023-04-25T14:09:45.837Z,1.92
2023-04-25T14:12:12.544Z,2.35
2023-04-25T14:14:39.323Z,1.88
2023-04-25T14:17:07.367Z,1.90
2023-04-25T14:19:34.024Z,2.10
2023-04-25T14:22:06.861Z,1.52
2023-04-25T14:24:33.495Z,2.60
2023-04-25T14:27:00.199Z,2.13
2023-04-25T14:29:27.107Z,1.83
2023-04-25T14:31:54.679Z,1.60
2023-04-25T14:34:21.377Z,1.50
2023-04-25T14:36:48.194Z,1.70
2023-04-25T14:39:15.800Z,2.40
2023-04-25T14:41:42.446Z,2.50
2023-04-25T14:44:09.319Z,2.20
2023-04-25T14:46:36.278Z,1.98
2023-04-25T14:49:06.253Z,2.65
2023-04-25T14:51:32.921Z,2.30
2023-04-25T14:53:59.759Z,2.63
2023-04-25T14:56:26.491Z,4.53
2023-04-25T14:58:53.163Z,3.85
2023-04-25T15:01:29.334Z,3.53
2023-04-25T15:03:56.372Z,3.20
2023-04-25T15:06:23.968Z,4.13
2023-04-25T15:08:50.608Z,3.92
2023-04-25T15:11:17.346Z,3.92
2023-04-25T15:13:44.189Z,3.60
2023-04-25T15:16:11.197Z,4.00
2023-04-25T15:18:37.965Z,3.95
2023-04-25T15:21:05.136Z,4.03
2023-04-25T15:23:32.056Z,4.40
2023-04-25T15:25:58.744Z,3.88
2023-04-25T15:28:25.620Z,3.75
2023-04-25T15:30:52.848Z,3.85
2023-04-25T15:33:19.773Z,4.18
2023-04-25T15:35:46.568Z,4.13
2023-04-25T15:38:13.603Z,5.00
2023-04-25T15:40:41.542Z,3.83
2023-04-25T15:43:11.493Z,5.00
2023-04-25T15:45:38.331Z,3.72
2023-04-25T15:48:05.672Z,4.47
2023-04-25T15:50:32.933Z,4.60
2023-04-25T15:52:59.977Z,4.82
2023-04-25T15:55:26.912Z,5.47
2023-04-25T15:57:53.744Z,9.02
2023-04-25T16:00:22.400Z,5.13
2023-04-25T16:02:49.479Z,3.60
2023-04-25T16:05:17.368Z,3.40
2023-04-25T16:07:45.852Z,8.50
2023-04-25T16:10:14.226Z,6.43
2023-04-25T16:12:41.250Z,4.88
2023-04-25T16:15:08.618Z,3.50
2023-04-25T16:17:35.633Z,3.00
2023-04-25T16:20:09.577Z,3.60
2023-04-25T16:22:40.454Z,4.65
2023-04-25T16:25:08.293Z,3.45
2023-04-25T16:27:35.953Z,3.53
2023-04-25T16:30:02.999Z,4.72
2023-04-25T16:32:29.659Z,4.20
2023-04-25T16:34:58.692Z,4.57
2023-04-25T16:37:26.368Z,3.97
2023-04-25T16:39:53.021Z,4.35
2023-04-25T16:42:19.991Z,4.18
2023-04-25T16:44:46.645Z,3.85
2023-04-25T16:47:17.312Z,3.90
2023-04-25T16:49:45.715Z,4.32
2023-04-25T16:52:12.881Z,3.88
2023-04-25T16:54:39.576Z,3.33
2023-04-25T16:57:10.366Z,3.88
2023-04-25T16:59:38.254Z,4.03
2023-04-25T17:02:05.227Z,6.15
2023-04-25T17:04:32.328Z,4.78
2023-04-25T17:06:59.151Z,5.63
2023-04-25T17:09:27.122Z,20.15
2023-04-25T17:11:54.917Z,5.00
2023-04-25T17:14:21.597Z,4.00
2023-04-25T17:16:49.584Z,4.68
2023-04-25T17:19:16.481Z,5.60
2023-04-25T17:21:43.877Z,4.30
2023-04-25T17:24:11.768Z,4.78
2023-04-25T17:26:38.951Z,6.38
2023-04-25T17:29:05.740Z,5.38
2023-04-25T17:31:32.603Z,5.25
2023-04-25T17:34:10.473Z,4.68
2023-04-25T17:36:37.086Z,5.78
2023-04-25T17:39:20.407Z,4.43
2023-04-25T17:41:47.120Z,3.75
2023-04-25T17:44:13.825Z,4.63
2023-04-25T17:46:41.084Z,4.88
2023-04-25T17:49:07.968Z,4.38
2023-04-25T17:51:34.770Z,4.40
2023-04-25T17:54:01.420Z,5.47
2023-04-25T17:56:28.176Z,5.40
2023-04-25T17:58:55.199Z,5.25
2023-04-25T18:01:22.441Z,5.70
2023-04-25T18:03:49.921Z,6.60
2023-04-25T18:06:17.952Z,6.00
2023-04-25T18:08:45.033Z,7.35
2023-04-25T18:11:12.188Z,8.13
2023-04-25T18:13:39.357Z,7.40
2023-04-25T18:16:09.931Z,6.38
2023-04-25T18:18:37.823Z,21.02
2023-04-25T18:21:10.392Z,15.60
2023-04-25T18:23:38.400Z,6.72
2023-04-25T18:26:05.547Z,6.10
2023-04-25T18:28:34.208Z,6.65
2023-04-25T18:31:01.227Z,6.70
2023-04-25T18:33:27.934Z,5.97
2023-04-25T18:35:59.052Z,4.90
2023-04-25T18:41:04.330Z,7.10
2023-04-25T18:43:37.130Z,6.43
2023-04-25T18:46:03.828Z,5.95
2023-04-25T18:48:30.749Z,3.65
2023-04-25T18:50:57.756Z,3.40
2023-04-25T18:53:24.488Z,3.30
2023-04-25T18:55:51.248Z,4.20
2023-04-25T18:58:18.006Z,5.05
2023-04-25T19:00:44.745Z,7.13
2023-04-25T19:03:11.573Z,6.55
2023-04-25T19:05:38.950Z,5.18
2023-04-25T19:08:05.897Z,5.30
2023-04-25T19:10:32.652Z,5.25
2023-04-25T19:12:59.272Z,5.50
2023-04-25T19:15:26.110Z,5.60
2023-04-25T19:17:53.432Z,6.13
2023-04-25T19:20:20.766Z,7.97
2023-04-25T19:22:48.391Z,6.72
2023-04-25T19:25:15.793Z,4.57
2023-04-25T19:27:42.551Z,3.40
2023-04-25T19:30:10.603Z,4.25
2023-04-25T19:32:40.363Z,3.33
2023-04-25T19:35:10.987Z,3.00
2023-04-25T19:37:38.355Z,2.88
2023-04-25T19:40:07.461Z,2.83
2023-04-25T19:42:34.126Z,4.57
2023-04-25T19:45:00.745Z,4.40
2023-04-25T19:47:28.234Z,4.85
2023-04-25T19:49:55.133Z,5.60
2023-04-25T19:52:21.849Z,6.32
2023-04-25T19:54:48.578Z,5.03
2023-04-25T19:57:15.321Z,5.75
2023-04-25T19:59:42.059Z,4.45
2023-04-25T20:02:11.813Z,5.95
2023-04-25T20:04:38.669Z,8.80
2023-04-25T20:07:05.415Z,7.72
2023-04-25T20:09:32.276Z,6.78
2023-04-25T20:11:59.134Z,6.68
2023-04-25T20:14:26.103Z,6.15
2023-04-25T20:16:53.813Z,6.68
2023-04-25T20:19:20.644Z,7.80
2023-04-25T20:21:47.536Z,6.90
2023-04-25T20:24:14.235Z,6.93
2023-04-25T20:26:40.965Z,7.00
2023-04-25T20:29:09.776Z,8.18
2023-04-25T20:31:37.112Z,7.53
2023-04-25T20:34:04.317Z,6.38
2023-04-25T20:36:32.068Z,6.53
2023-04-25T20:38:58.834Z,7.38
2023-04-25T20:41:25.676Z,6.47
2023-04-25T20:43:53.360Z,7.15
2023-04-25T20:46:20.719Z,6.68
2023-04-25T20:48:47.612Z,7.47
2023-04-25T20:51:14.524Z,6.82
2023-04-25T20:53:41.321Z,10.10
2023-04-25T20:56:08.149Z,10.43
2023-04-25T20:58:34.921Z,8.20
2023-04-25T21:01:03.054Z,7.13
2023-04-25T21:03:30.419Z,6.80
2023-04-25T21:05:57.469Z,7.45
2023-04-25T21:08:24.215Z,6.80
2023-04-25T21:10:52.848Z,6.68
2023-04-25T21:13:19.600Z,6.40
2023-04-25T21:15:46.357Z,6.38
2023-04-25T21:18:13.178Z,6.18
2023-04-25T21:20:40.045Z,7.25
2023-04-25T21:23:06.745Z,9.63
2023-04-25T21:25:34.057Z,9.00
2023-04-25T21:28:02.662Z,7.45
2023-04-25T21:30:30.212Z,6.38
2023-04-25T21:32:57.360Z,9.07
2023-04-25T21:35:24.832Z,6.80
2023-04-25T21:37:52.099Z,8.88
2023-04-25T21:40:18.979Z,8.43
2023-04-25T21:42:51.551Z,8.55
2023-04-25T21:45:19.988Z,7.97
2023-04-25T21:47:50.727Z,6.47
2023-04-25T21:50:18.676Z,8.18
2023-04-25T21:52:45.495Z,7.40
2023-04-25T21:55:12.299Z,7.55
2023-04-25T21:57:39.257Z,7.20
2023-04-25T22:00:20.065Z,7.28
2023-04-25T22:02:53.584Z,6.50
2023-04-25T22:05:22.409Z,6.57
2023-04-25T22:07:50.657Z,5.60
2023-04-25T22:10:18.090Z,5.95
2023-04-25T22:12:44.878Z,5.45
2023-04-25T22:15:14.618Z,4.60
2023-04-25T22:17:41.492Z,4.75
2023-04-25T22:20:14.121Z,5.53
2023-04-25T22:22:41.786Z,5.20
2023-04-25T22:25:09.818Z,5.57
2023-04-25T22:27:36.599Z,5.55
2023-04-25T22:30:03.774Z,5.28
2023-04-25T22:32:30.577Z,4.72
2023-04-25T22:34:57.301Z,4.95
2023-04-25T22:37:24.026Z,6.22
2023-04-25T22:39:51.212Z,6.15
2023-04-25T22:42:17.951Z,5.82
2023-04-25T22:44:44.775Z,6.32
2023-04-25T22:47:11.463Z,5.20
2023-04-25T22:49:38.292Z,5.35
2023-04-25T22:52:07.455Z,5.63
2023-04-25T22:54:35.077Z,4.40
2023-04-25T22:57:01.728Z,5.90
2023-04-25T22:59:28.481Z,5.05
2023-04-25T23:01:56.485Z,5.65
2023-04-25T23:04:24.541Z,5.22
2023-04-25T23:06:51.462Z,4.85
2023-04-25T23:09:18.151Z,4.60
2023-04-25T23:11:44.945Z,3.97
2023-04-25T23:14:11.774Z,4.60
2023-04-25T23:16:40.682Z,4.35
2023-04-25T23:19:07.962Z,4.80
2023-04-25T23:21:34.834Z,4.35
2023-04-25T23:24:01.572Z,4.53
2023-04-25T23:26:28.235Z,3.92
2023-04-25T23:28:55.065Z,4.10
2023-04-25T23:31:22.153Z,5.25
2023-04-25T23:33:48.967Z,5.93
2023-04-25T23:36:19.944Z,8.40
2023-04-25T23:38:47.372Z,6.95
2023-04-25T23:41:14.537Z,5.65
2023-04-25T23:43:41.592Z,5.47
2023-04-25T23:46:17.257Z,4.18
2023-04-25T23:48:44.048Z,4.65
2023-04-25T23:51:10.851Z,4.13
2023-04-25T23:53:37.567Z,4.32
2023-04-25T23:56:05.223Z,4.32
2023-04-25T23:58:31.917Z,5.15
